sensor_id;sensor_type;location;lat;lon;timestamp;P1;durP1;ratioP1;P2;durP2;ratioP2
84357;SDS011;74548;47.712;9.272;2024-02-14T00:00:31;2.22;;;1.45;;
84357;SDS011;74548;47.712;9.272;2024-02-14T00:02:57;4.28;;;1.60;;
84357;SDS011;74548;47.712;9.272;2024-02-14T00:05:23;1.83;;;1.17;;
84357;SDS011;74548;47.712;9.272;2024-02-14T00:07:48;4.00;;;1.75;;
84357;SDS011;74548;47.712;9.272;2024-02-14T00:10:14;2.80;;;1.42;;
84357;SDS011;74548;47.712;9.272;2024-02-14T00:12:39;2.13;;;1.27;;
84357;SDS011;74548;47.712;9.272;2024-02-14T00:15:05;1.52;;;1.30;;
84357;SDS011;74548;47.712;9.272;2024-02-14T00:17:32;2.60;;;1.48;;
84357;SDS011;74548;47.712;9.272;2024-02-14T00:19:59;3.22;;;1.30;;
84357;SDS011;74548;47.712;9.272;2024-02-14T00:22:29;2.88;;;1.40;;
84357;SDS011;74548;47.712;9.272;2024-02-14T00:24:58;2.10;;;1.40;;
84357;SDS011;74548;47.712;9.272;2024-02-14T00:27:24;2.88;;;1.48;;
84357;SDS011;74548;47.712;9.272;2024-02-14T00:29:51;3.00;;;1.35;;
84357;SDS011;74548;47.712;9.272;2024-02-14T00:32:18;3.97;;;1.40;;
84357;SDS011;74548;47.712;9.272;2024-02-14T00:34:44;2.50;;;1.50;;
84357;SDS011;74548;47.712;9.272;2024-02-14T00:37:10;3.45;;;1.52;;
84357;SDS011;74548;47.712;9.272;2024-02-14T00:39:36;2.60;;;1.33;;
84357;SDS011;74548;47.712;9.272;2024-02-14T00:42:01;1.80;;;1.20;;
84357;SDS011;74548;47.712;9.272;2024-02-14T00:44:27;2.60;;;1.35;;
84357;SDS011;74548;47.712;9.272;2024-02-14T00:46:59;1.80;;;1.30;;
84357;SDS011;74548;47.712;9.272;2024-02-14T00:49:25;2.55;;;1.30;;
84357;SDS011;74548;47.712;9.272;2024-02-14T00:51:51;2.10;;;1.45;;
84357;SDS011;74548;47.712;9.272;2024-02-14T00:54:16;2.73;;;1.50;;
84357;SDS011;74548;47.712;9.272;2024-02-14T00:56:42;4.13;;;1.50;;
84357;SDS011;74548;47.712;9.272;2024-02-14T00:59:07;2.37;;;1.47;;
84357;SDS011;74548;47.712;9.272;2024-02-14T01:01:33;3.50;;;1.70;;
84357;SDS011;74548;47.712;9.272;2024-02-14T01:06:26;2.33;;;1.13;;
84357;SDS011;74548;47.712;9.272;2024-02-14T01:08:51;2.20;;;1.30;;
84357;SDS011;74548;47.712;9.272;2024-02-14T01:11:17;3.00;;;1.30;;
84357;SDS011;74548;47.712;9.272;2024-02-14T01:13:42;3.13;;;1.25;;
84357;SDS011;74548;47.712;9.272;2024-02-14T01:16:07;2.28;;;1.23;;
84357;SDS011;74548;47.712;9.272;2024-02-14T01:18:33;3.23;;;1.63;;
84357;SDS011;74548;47.712;9.272;2024-02-14T01:20:58;2.75;;;1.45;;
84357;SDS011;74548;47.712;9.272;2024-02-14T01:23:24;2.25;;;1.40;;
84357;SDS011;74548;47.712;9.272;2024-02-14T01:25:49;2.30;;;1.58;;
84357;SDS011;74548;47.712;9.272;2024-02-14T01:28:15;3.08;;;1.77;;
84357;SDS011;74548;47.712;9.272;2024-02-14T01:30:42;3.42;;;1.50;;
84357;SDS011;74548;47.712;9.272;2024-02-14T01:33:08;3.53;;;1.50;;
84357;SDS011;74548;47.712;9.272;2024-02-14T01:35:33;2.40;;;1.27;;
84357;SDS011;74548;47.712;9.272;2024-02-14T01:37:58;2.00;;;1.10;;
84357;SDS011;74548;47.712;9.272;2024-02-14T01:40:23;1.60;;;1.20;;
84357;SDS011;74548;47.712;9.272;2024-02-14T01:42:49;2.73;;;1.50;;
84357;SDS011;74548;47.712;9.272;2024-02-14T01:45:14;2.60;;;1.33;;
84357;SDS011;74548;47.712;9.272;2024-02-14T01:47:40;2.47;;;1.45;;
84357;SDS011;74548;47.712;9.272;2024-02-14T01:50:06;2.60;;;1.42;;
84357;SDS011;74548;47.712;9.272;2024-02-14T01:52:36;2.42;;;1.45;;
84357;SDS011;74548;47.712;9.272;2024-02-14T01:55:04;3.10;;;1.40;;
84357;SDS011;74548;47.712;9.272;2024-02-14T01:57:33;2.50;;;1.75;;
84357;SDS011;74548;47.712;9.272;2024-02-14T02:02:29;2.00;;;1.20;;
84357;SDS011;74548;47.712;9.272;2024-02-14T02:04:54;1.55;;;1.10;;
84357;SDS011;74548;47.712;9.272;2024-02-14T02:07:20;2.90;;;1.25;;
84357;SDS011;74548;47.712;9.272;2024-02-14T02:12:01;2.53;;;1.30;;
84357;SDS011;74548;47.712;9.272;2024-02-14T02:14:30;3.78;;;1.40;;
84357;SDS011;74548;47.712;9.272;2024-02-14T02:16:55;2.25;;;1.33;;
84357;SDS011;74548;47.712;9.272;2024-02-14T02:19:22;2.92;;;1.60;;
84357;SDS011;74548;47.712;9.272;2024-02-14T02:21:47;3.40;;;1.47;;
84357;SDS011;74548;47.712;9.272;2024-02-14T02:24:12;2.17;;;1.40;;
84357;SDS011;74548;47.712;9.272;2024-02-14T02:26:38;2.58;;;1.42;;
84357;SDS011;74548;47.712;9.272;2024-02-14T02:29:03;2.33;;;1.60;;
84357;SDS011;74548;47.712;9.272;2024-02-14T02:31:30;3.88;;;1.70;;
84357;SDS011;74548;47.712;9.272;2024-02-14T02:33:56;2.33;;;1.33;;
84357;SDS011;74548;47.712;9.272;2024-02-14T02:36:21;2.00;;;1.27;;
84357;SDS011;74548;47.712;9.272;2024-02-14T02:38:49;2.53;;;1.90;;
84357;SDS011;74548;47.712;9.272;2024-02-14T02:41:15;3.20;;;1.40;;
84357;SDS011;74548;47.712;9.272;2024-02-14T02:43:40;3.40;;;1.85;;
84357;SDS011;74548;47.712;9.272;2024-02-14T02:48:18;3.45;;;1.77;;
84357;SDS011;74548;47.712;9.272;2024-02-14T02:50:45;2.63;;;1.55;;
84357;SDS011;74548;47.712;9.272;2024-02-14T02:53:14;2.40;;;1.60;;
84357;SDS011;74548;47.712;9.272;2024-02-14T02:55:39;2.53;;;1.55;;
84357;SDS011;74548;47.712;9.272;2024-02-14T03:00:29;2.83;;;1.60;;
84357;SDS011;74548;47.712;9.272;2024-02-14T03:02:54;2.77;;;1.60;;
84357;SDS011;74548;47.712;9.272;2024-02-14T03:05:19;3.07;;;1.60;;
84357;SDS011;74548;47.712;9.272;2024-02-14T03:07:48;2.35;;;1.33;;
84357;SDS011;74548;47.712;9.272;2024-02-14T03:10:15;3.13;;;1.50;;
84357;SDS011;74548;47.712;9.272;2024-02-14T03:12:44;2.17;;;1.52;;
84357;SDS011;74548;47.712;9.272;2024-02-14T03:15:10;2.80;;;1.55;;
84357;SDS011;74548;47.712;9.272;2024-02-14T03:17:36;2.92;;;1.50;;
84357;SDS011;74548;47.712;9.272;2024-02-14T03:20:02;3.88;;;1.92;;
84357;SDS011;74548;47.712;9.272;2024-02-14T03:22:33;2.92;;;1.42;;
84357;SDS011;74548;47.712;9.272;2024-02-14T03:24:58;2.17;;;1.33;;
84357;SDS011;74548;47.712;9.272;2024-02-14T03:27:23;2.10;;;1.30;;
84357;SDS011;74548;47.712;9.272;2024-02-14T03:29:52;1.65;;;1.15;;
84357;SDS011;74548;47.712;9.272;2024-02-14T03:32:17;4.20;;;1.63;;
84357;SDS011;74548;47.712;9.272;2024-02-14T03:34:42;2.97;;;1.70;;
84357;SDS011;74548;47.712;9.272;2024-02-14T03:37:08;2.67;;;1.40;;
84357;SDS011;74548;47.712;9.272;2024-02-14T03:41:57;3.78;;;1.50;;
84357;SDS011;74548;47.712;9.272;2024-02-14T03:44:22;2.63;;;1.10;;
84357;SDS011;74548;47.712;9.272;2024-02-14T03:46:48;2.33;;;1.52;;
84357;SDS011;74548;47.712;9.272;2024-02-14T03:49:14;3.33;;;1.27;;
84357;SDS011;74548;47.712;9.272;2024-02-14T03:51:39;2.72;;;1.50;;
84357;SDS011;74548;47.712;9.272;2024-02-14T03:54:05;2.50;;;1.63;;
84357;SDS011;74548;47.712;9.272;2024-02-14T03:56:30;3.90;;;1.60;;
84357;SDS011;74548;47.712;9.272;2024-02-14T03:58:58;2.95;;;1.40;;
84357;SDS011;74548;47.712;9.272;2024-02-14T04:01:24;2.20;;;1.42;;
84357;SDS011;74548;47.712;9.272;2024-02-14T04:03:49;2.85;;;1.20;;
84357;SDS011;74548;47.712;9.272;2024-02-14T04:06:15;2.50;;;1.33;;
84357;SDS011;74548;47.712;9.272;2024-02-14T04:08:40;2.50;;;1.40;;
84357;SDS011;74548;47.712;9.272;2024-02-14T04:11:05;1.77;;;1.20;;
84357;SDS011;74548;47.712;9.272;2024-02-14T04:13:31;2.17;;;1.43;;
84357;SDS011;74548;47.712;9.272;2024-02-14T04:18:24;2.15;;;1.25;;
84357;SDS011;74548;47.712;9.272;2024-02-14T04:20:49;2.17;;;1.23;;
84357;SDS011;74548;47.712;9.272;2024-02-14T04:23:15;2.57;;;1.73;;
84357;SDS011;74548;47.712;9.272;2024-02-14T04:25:40;3.07;;;1.53;;
84357;SDS011;74548;47.712;9.272;2024-02-14T04:28:06;3.10;;;1.45;;
84357;SDS011;74548;47.712;9.272;2024-02-14T04:30:31;2.65;;;1.60;;
84357;SDS011;74548;47.712;9.272;2024-02-14T04:32:57;2.70;;;1.40;;
84357;SDS011;74548;47.712;9.272;2024-02-14T04:35:22;2.38;;;1.35;;
84357;SDS011;74548;47.712;9.272;2024-02-14T04:37:47;2.35;;;1.50;;
84357;SDS011;74548;47.712;9.272;2024-02-14T04:40:14;3.67;;;1.73;;
84357;SDS011;74548;47.712;9.272;2024-02-14T04:42:40;2.20;;;1.60;;
84357;SDS011;74548;47.712;9.272;2024-02-14T04:45:08;3.20;;;1.50;;
84357;SDS011;74548;47.712;9.272;2024-02-14T04:47:34;2.47;;;1.30;;
84357;SDS011;74548;47.712;9.272;2024-02-14T04:49:59;2.07;;;1.30;;
84357;SDS011;74548;47.712;9.272;2024-02-14T04:52:26;2.83;;;1.27;;
84357;SDS011;74548;47.712;9.272;2024-02-14T04:54:51;4.45;;;1.48;;
84357;SDS011;74548;47.712;9.272;2024-02-14T04:59:43;1.92;;;1.30;;
84357;SDS011;74548;47.712;9.272;2024-02-14T05:02:08;2.27;;;1.23;;
84357;SDS011;74548;47.712;9.272;2024-02-14T05:04:33;2.63;;;1.40;;
84357;SDS011;74548;47.712;9.272;2024-02-14T05:09:28;2.55;;;1.50;;
84357;SDS011;74548;47.712;9.272;2024-02-14T05:11:53;2.80;;;1.73;;
84357;SDS011;74548;47.712;9.272;2024-02-14T05:14:19;1.98;;;1.20;;
84357;SDS011;74548;47.712;9.272;2024-02-14T05:16:44;3.13;;;1.40;;
84357;SDS011;74548;47.712;9.272;2024-02-14T05:19:10;2.50;;;1.17;;
84357;SDS011;74548;47.712;9.272;2024-02-14T05:21:35;2.95;;;1.23;;
84357;SDS011;74548;47.712;9.272;2024-02-14T05:24:01;2.97;;;1.50;;
84357;SDS011;74548;47.712;9.272;2024-02-14T05:26:26;2.20;;;1.73;;
84357;SDS011;74548;47.712;9.272;2024-02-14T05:28:52;3.90;;;1.38;;
84357;SDS011;74548;47.712;9.272;2024-02-14T05:31:17;2.53;;;1.30;;
84357;SDS011;74548;47.712;9.272;2024-02-14T05:33:42;3.15;;;1.40;;
84357;SDS011;74548;47.712;9.272;2024-02-14T05:36:08;1.95;;;1.25;;
84357;SDS011;74548;47.712;9.272;2024-02-14T05:38:33;2.78;;;1.30;;
84357;SDS011;74548;47.712;9.272;2024-02-14T05:40:59;2.45;;;1.20;;
84357;SDS011;74548;47.712;9.272;2024-02-14T05:43:25;3.97;;;1.70;;
84357;SDS011;74548;47.712;9.272;2024-02-14T05:45:50;2.67;;;1.50;;
84357;SDS011;74548;47.712;9.272;2024-02-14T05:48:16;1.87;;;1.10;;
84357;SDS011;74548;47.712;9.272;2024-02-14T05:50:41;2.53;;;1.42;;
84357;SDS011;74548;47.712;9.272;2024-02-14T05:53:07;3.03;;;1.23;;
84357;SDS011;74548;47.712;9.272;2024-02-14T05:55:32;2.30;;;1.20;;
84357;SDS011;74548;47.712;9.272;2024-02-14T05:57:57;3.88;;;1.30;;
84357;SDS011;74548;47.712;9.272;2024-02-14T06:00:24;2.90;;;1.52;;
84357;SDS011;74548;47.712;9.272;2024-02-14T06:02:50;2.78;;;1.30;;
84357;SDS011;74548;47.712;9.272;2024-02-14T06:05:16;2.55;;;1.27;;
84357;SDS011;74548;47.712;9.272;2024-02-14T06:10:06;2.53;;;1.13;;
84357;SDS011;74548;47.712;9.272;2024-02-14T06:12:32;2.67;;;1.60;;
84357;SDS011;74548;47.712;9.272;2024-02-14T06:14:58;1.77;;;1.00;;
84357;SDS011;74548;47.712;9.272;2024-02-14T06:17:23;2.47;;;1.33;;
84357;SDS011;74548;47.712;9.272;2024-02-14T06:19:49;2.50;;;1.48;;
84357;SDS011;74548;47.712;9.272;2024-02-14T06:22:14;1.98;;;1.27;;
84357;SDS011;74548;47.712;9.272;2024-02-14T06:24:39;2.57;;;1.50;;
84357;SDS011;74548;47.712;9.272;2024-02-14T06:27:05;2.37;;;1.40;;
84357;SDS011;74548;47.712;9.272;2024-02-14T06:29:31;2.38;;;1.40;;
84357;SDS011;74548;47.712;9.272;2024-02-14T06:31:56;1.80;;;1.37;;
84357;SDS011;74548;47.712;9.272;2024-02-14T06:34:22;2.00;;;1.17;;
84357;SDS011;74548;47.712;9.272;2024-02-14T06:36:47;2.58;;;1.10;;
84357;SDS011;74548;47.712;9.272;2024-02-14T06:39:12;1.77;;;1.10;;
84357;SDS011;74548;47.712;9.272;2024-02-14T06:41:38;1.42;;;1.13;;
84357;SDS011;74548;47.712;9.272;2024-02-14T06:44:04;2.90;;;1.33;;
84357;SDS011;74548;47.712;9.272;2024-02-14T06:46:29;1.50;;;1.15;;
84357;SDS011;74548;47.712;9.272;2024-02-14T06:51:13;2.75;;;1.20;;
84357;SDS011;74548;47.712;9.272;2024-02-14T06:53:39;2.13;;;1.20;;
84357;SDS011;74548;47.712;9.272;2024-02-14T06:56:04;2.33;;;1.30;;
84357;SDS011;74548;47.712;9.272;2024-02-14T06:58:30;2.83;;;1.20;;
84357;SDS011;74548;47.712;9.272;2024-02-14T07:00:55;1.70;;;0.88;;
84357;SDS011;74548;47.712;9.272;2024-02-14T07:03:21;2.05;;;1.13;;
84357;SDS011;74548;47.712;9.272;2024-02-14T07:05:46;2.05;;;1.23;;
84357;SDS011;74548;47.712;9.272;2024-02-14T07:08:12;2.67;;;1.33;;
84357;SDS011;74548;47.712;9.272;2024-02-14T07:10:37;1.60;;;0.93;;
84357;SDS011;74548;47.712;9.272;2024-02-14T07:13:02;3.40;;;1.58;;
84357;SDS011;74548;47.712;9.272;2024-02-14T07:15:28;1.65;;;1.10;;
84357;SDS011;74548;47.712;9.272;2024-02-14T07:17:54;2.47;;;1.35;;
84357;SDS011;74548;47.712;9.272;2024-02-14T07:20:20;3.92;;;1.40;;
84357;SDS011;74548;47.712;9.272;2024-02-14T07:22:46;2.60;;;1.42;;
84357;SDS011;74548;47.712;9.272;2024-02-14T07:25:12;2.08;;;1.00;;
84357;SDS011;74548;47.712;9.272;2024-02-14T07:27:38;1.73;;;1.00;;
84357;SDS011;74548;47.712;9.272;2024-02-14T07:30:04;2.47;;;1.40;;
84357;SDS011;74548;47.712;9.272;2024-02-14T07:32:30;2.40;;;1.20;;
84357;SDS011;74548;47.712;9.272;2024-02-14T07:34:56;2.17;;;0.85;;
84357;SDS011;74548;47.712;9.272;2024-02-14T07:37:21;1.70;;;1.10;;
84357;SDS011;74548;47.712;9.272;2024-02-14T07:39:47;2.33;;;1.30;;
84357;SDS011;74548;47.712;9.272;2024-02-14T07:42:13;1.55;;;0.90;;
84357;SDS011;74548;47.712;9.272;2024-02-14T07:44:38;1.92;;;1.23;;
84357;SDS011;74548;47.712;9.272;2024-02-14T07:47:04;2.40;;;1.40;;
84357;SDS011;74548;47.712;9.272;2024-02-14T07:49:29;1.52;;;0.93;;
84357;SDS011;74548;47.712;9.272;2024-02-14T07:51:55;1.98;;;1.00;;
84357;SDS011;74548;47.712;9.272;2024-02-14T07:54:20;2.22;;;1.10;;
84357;SDS011;74548;47.712;9.272;2024-02-14T07:56:46;1.93;;;0.83;;
84357;SDS011;74548;47.712;9.272;2024-02-14T07:59:11;1.65;;;1.02;;
84357;SDS011;74548;47.712;9.272;2024-02-14T08:01:37;1.67;;;1.02;;
84357;SDS011;74548;47.712;9.272;2024-02-14T08:04:02;2.03;;;1.20;;
84357;SDS011;74548;47.712;9.272;2024-02-14T08:06:29;1.70;;;0.98;;
84357;SDS011;74548;47.712;9.272;2024-02-14T08:08:54;1.50;;;0.98;;
84357;SDS011;74548;47.712;9.272;2024-02-14T08:11:24;1.33;;;0.85;;
84357;SDS011;74548;47.712;9.272;2024-02-14T08:16:02;1.90;;;1.10;;
84357;SDS011;74548;47.712;9.272;2024-02-14T08:18:28;2.05;;;1.25;;
84357;SDS011;74548;47.712;9.272;2024-02-14T08:20:54;2.75;;;1.00;;
84357;SDS011;74548;47.712;9.272;2024-02-14T08:24:02;4.18;;;1.20;;
84357;SDS011;74548;47.712;9.272;2024-02-14T08:26:27;1.75;;;1.00;;
84357;SDS011;74548;47.712;9.272;2024-02-14T08:28:53;1.65;;;1.00;;
84357;SDS011;74548;47.712;9.272;2024-02-14T08:31:19;2.10;;;1.23;;
84357;SDS011;74548;47.712;9.272;2024-02-14T08:33:45;2.38;;;1.10;;
84357;SDS011;74548;47.712;9.272;2024-02-14T08:36:10;1.30;;;0.90;;
84357;SDS011;74548;47.712;9.272;2024-02-14T08:38:36;1.88;;;0.98;;
84357;SDS011;74548;47.712;9.272;2024-02-14T08:41:02;1.35;;;0.93;;
84357;SDS011;74548;47.712;9.272;2024-02-14T08:43:28;1.75;;;0.90;;
84357;SDS011;74548;47.712;9.272;2024-02-14T08:45:57;1.50;;;0.80;;
84357;SDS011;74548;47.712;9.272;2024-02-14T08:50:53;2.63;;;1.00;;
84357;SDS011;74548;47.712;9.272;2024-02-14T08:53:18;1.48;;;0.93;;
84357;SDS011;74548;47.712;9.272;2024-02-14T08:55:44;2.80;;;0.73;;
84357;SDS011;74548;47.712;9.272;2024-02-14T08:58:09;2.00;;;1.02;;
84357;SDS011;74548;47.712;9.272;2024-02-14T09:00:35;1.67;;;1.08;;
84357;SDS011;74548;47.712;9.272;2024-02-14T09:03:05;1.70;;;1.00;;
84357;SDS011;74548;47.712;9.272;2024-02-14T09:07:56;1.70;;;1.00;;
84357;SDS011;74548;47.712;9.272;2024-02-14T09:10:22;1.73;;;0.90;;
84357;SDS011;74548;47.712;9.272;2024-02-14T09:12:47;1.67;;;1.02;;
84357;SDS011;74548;47.712;9.272;2024-02-14T09:15:13;2.78;;;1.02;;
84357;SDS011;74548;47.712;9.272;2024-02-14T09:17:39;1.55;;;0.90;;
84357;SDS011;74548;47.712;9.272;2024-02-14T09:20:08;2.08;;;1.02;;
84357;SDS011;74548;47.712;9.272;2024-02-14T09:24:48;2.30;;;1.02;;
84357;SDS011;74548;47.712;9.272;2024-02-14T09:27:15;2.00;;;1.20;;
84357;SDS011;74548;47.712;9.272;2024-02-14T09:29:40;2.25;;;1.15;;
84357;SDS011;74548;47.712;9.272;2024-02-14T09:32:06;1.23;;;0.87;;
84357;SDS011;74548;47.712;9.272;2024-02-14T09:34:31;2.83;;;0.90;;
84357;SDS011;74548;47.712;9.272;2024-02-14T09:36:56;1.60;;;0.95;;
84357;SDS011;74548;47.712;9.272;2024-02-14T09:39:23;2.58;;;1.10;;
84357;SDS011;74548;47.712;9.272;2024-02-14T09:41:54;1.45;;;0.80;;
84357;SDS011;74548;47.712;9.272;2024-02-14T09:44:24;2.08;;;1.00;;
84357;SDS011;74548;47.712;9.272;2024-02-14T09:46:53;2.25;;;0.93;;
84357;SDS011;74548;47.712;9.272;2024-02-14T09:49:20;1.58;;;1.00;;
84357;SDS011;74548;47.712;9.272;2024-02-14T09:51:46;1.45;;;0.95;;
84357;SDS011;74548;47.712;9.272;2024-02-14T09:54:16;2.25;;;1.20;;
84357;SDS011;74548;47.712;9.272;2024-02-14T09:56:43;2.35;;;1.20;;
84357;SDS011;74548;47.712;9.272;2024-02-14T09:59:18;2.10;;;1.05;;
84357;SDS011;74548;47.712;9.272;2024-02-14T10:01:44;1.65;;;1.00;;
84357;SDS011;74548;47.712;9.272;2024-02-14T10:04:11;2.55;;;0.90;;
84357;SDS011;74548;47.712;9.272;2024-02-14T10:06:36;2.22;;;0.98;;
84357;SDS011;74548;47.712;9.272;2024-02-14T10:09:02;1.52;;;0.95;;
84357;SDS011;74548;47.712;9.272;2024-02-14T10:11:27;2.13;;;1.10;;
84357;SDS011;74548;47.712;9.272;2024-02-14T10:13:53;1.70;;;1.25;;
84357;SDS011;74548;47.712;9.272;2024-02-14T10:18:47;1.92;;;1.10;;
84357;SDS011;74548;47.712;9.272;2024-02-14T10:21:14;2.00;;;0.80;;
84357;SDS011;74548;47.712;9.272;2024-02-14T10:23:44;1.00;;;0.80;;
84357;SDS011;74548;47.712;9.272;2024-02-14T10:26:11;1.85;;;1.20;;
84357;SDS011;74548;47.712;9.272;2024-02-14T10:28:40;1.60;;;1.00;;
84357;SDS011;74548;47.712;9.272;2024-02-14T10:31:07;1.58;;;0.80;;
84357;SDS011;74548;47.712;9.272;2024-02-14T10:33:34;1.80;;;0.98;;
84357;SDS011;74548;47.712;9.272;2024-02-14T10:35:59;1.92;;;0.80;;
84357;SDS011;74548;47.712;9.272;2024-02-14T10:38:27;1.38;;;0.95;;
84357;SDS011;74548;47.712;9.272;2024-02-14T10:40:57;1.23;;;0.80;;
84357;SDS011;74548;47.712;9.272;2024-02-14T10:43:25;2.00;;;1.10;;
84357;SDS011;74548;47.712;9.272;2024-02-14T10:45:51;1.63;;;0.80;;
84357;SDS011;74548;47.712;9.272;2024-02-14T10:48:18;0.95;;;0.63;;
84357;SDS011;74548;47.712;9.272;2024-02-14T10:50:50;2.35;;;1.00;;
84357;SDS011;74548;47.712;9.272;2024-02-14T10:53:17;2.22;;;0.85;;
84357;SDS011;74548;47.712;9.272;2024-02-14T10:55:50;1.45;;;0.77;;
84357;SDS011;74548;47.712;9.272;2024-02-14T10:58:16;1.50;;;0.93;;
84357;SDS011;74548;47.712;9.272;2024-02-14T11:00:42;1.90;;;0.98;;
84357;SDS011;74548;47.712;9.272;2024-02-14T11:03:09;1.73;;;1.00;;
84357;SDS011;74548;47.712;9.272;2024-02-14T11:05:48;1.85;;;1.02;;
84357;SDS011;74548;47.712;9.272;2024-02-14T11:10:37;1.20;;;0.80;;
84357;SDS011;74548;47.712;9.272;2024-02-14T11:13:02;1.95;;;1.10;;
84357;SDS011;74548;47.712;9.272;2024-02-14T11:15:28;5.57;;;0.90;;
84357;SDS011;74548;47.712;9.272;2024-02-14T11:18:03;1.83;;;1.20;;
84357;SDS011;74548;47.712;9.272;2024-02-14T11:20:34;2.05;;;1.00;;
84357;SDS011;74548;47.712;9.272;2024-02-14T11:23:03;2.38;;;1.02;;
84357;SDS011;74548;47.712;9.272;2024-02-14T11:25:31;1.42;;;0.95;;
84357;SDS011;74548;47.712;9.272;2024-02-14T11:28:12;2.00;;;1.00;;
84357;SDS011;74548;47.712;9.272;2024-02-14T11:30:50;2.55;;;1.00;;
84357;SDS011;74548;47.712;9.272;2024-02-14T11:33:17;1.83;;;0.98;;
84357;SDS011;74548;47.712;9.272;2024-02-14T11:35:46;2.03;;;0.95;;
84357;SDS011;74548;47.712;9.272;2024-02-14T11:38:18;2.05;;;1.00;;
84357;SDS011;74548;47.712;9.272;2024-02-14T11:40:44;1.52;;;0.93;;
84357;SDS011;74548;47.712;9.272;2024-02-14T11:43:14;2.03;;;1.20;;
84357;SDS011;74548;47.712;9.272;2024-02-14T11:45:42;3.05;;;1.10;;
84357;SDS011;74548;47.712;9.272;2024-02-14T11:48:11;2.38;;;1.05;;
84357;SDS011;74548;47.712;9.272;2024-02-14T11:50:40;1.73;;;1.10;;
84357;SDS011;74548;47.712;9.272;2024-02-14T11:53:08;2.95;;;1.27;;
84357;SDS011;74548;47.712;9.272;2024-02-14T11:55:36;2.65;;;1.27;;
84357;SDS011;74548;47.712;9.272;2024-02-14T11:58:05;2.45;;;1.13;;
84357;SDS011;74548;47.712;9.272;2024-02-14T12:00:32;2.42;;;0.93;;
84357;SDS011;74548;47.712;9.272;2024-02-14T12:02:58;2.33;;;1.10;;
84357;SDS011;74548;47.712;9.272;2024-02-14T12:05:24;1.48;;;0.90;;
84357;SDS011;74548;47.712;9.272;2024-02-14T12:07:53;2.10;;;0.80;;
84357;SDS011;74548;47.712;9.272;2024-02-14T12:10:19;1.85;;;1.00;;
84357;SDS011;74548;47.712;9.272;2024-02-14T12:12:46;1.63;;;1.15;;
84357;SDS011;74548;47.712;9.272;2024-02-14T12:15:13;2.20;;;1.15;;
84357;SDS011;74548;47.712;9.272;2024-02-14T12:17:40;2.08;;;1.10;;
84357;SDS011;74548;47.712;9.272;2024-02-14T12:20:10;1.52;;;1.00;;
84357;SDS011;74548;47.712;9.272;2024-02-14T12:22:38;1.42;;;0.98;;
84357;SDS011;74548;47.712;9.272;2024-02-14T12:25:05;1.85;;;0.93;;
84357;SDS011;74548;47.712;9.272;2024-02-14T12:27:32;1.83;;;1.13;;
84357;SDS011;74548;47.712;9.272;2024-02-14T12:29:58;1.60;;;1.05;;
84357;SDS011;74548;47.712;9.272;2024-02-14T12:32:24;1.80;;;1.08;;
84357;SDS011;74548;47.712;9.272;2024-02-14T12:34:49;1.40;;;0.88;;
84357;SDS011;74548;47.712;9.272;2024-02-14T12:37:15;1.93;;;1.00;;
84357;SDS011;74548;47.712;9.272;2024-02-14T12:39:40;2.25;;;0.80;;
84357;SDS011;74548;47.712;9.272;2024-02-14T12:42:05;1.52;;;1.10;;
84357;SDS011;74548;47.712;9.272;2024-02-14T12:44:31;2.13;;;1.10;;
84357;SDS011;74548;47.712;9.272;2024-02-14T12:46:56;2.53;;;1.30;;
84357;SDS011;74548;47.712;9.272;2024-02-14T12:49:22;1.80;;;1.10;;
84357;SDS011;74548;47.712;9.272;2024-02-14T12:51:51;2.33;;;1.02;;
84357;SDS011;74548;47.712;9.272;2024-02-14T12:54:16;1.38;;;0.90;;
84357;SDS011;74548;47.712;9.272;2024-02-14T12:56:42;2.03;;;0.95;;
84357;SDS011;74548;47.712;9.272;2024-02-14T12:59:07;1.42;;;1.15;;
84357;SDS011;74548;47.712;9.272;2024-02-14T13:01:37;1.17;;;0.88;;
84357;SDS011;74548;47.712;9.272;2024-02-14T13:04:02;2.03;;;1.10;;
84357;SDS011;74548;47.712;9.272;2024-02-14T13:06:30;1.63;;;0.90;;
84357;SDS011;74548;47.712;9.272;2024-02-14T13:08:56;1.73;;;1.17;;
84357;SDS011;74548;47.712;9.272;2024-02-14T13:11:21;1.90;;;0.98;;
84357;SDS011;74548;47.712;9.272;2024-02-14T13:13:47;1.27;;;0.83;;
84357;SDS011;74548;47.712;9.272;2024-02-14T13:16:12;1.70;;;0.80;;
84357;SDS011;74548;47.712;9.272;2024-02-14T13:18:38;1.63;;;0.68;;
84357;SDS011;74548;47.712;9.272;2024-02-14T13:21:05;1.27;;;0.90;;
84357;SDS011;74548;47.712;9.272;2024-02-14T13:23:30;1.73;;;0.90;;
84357;SDS011;74548;47.712;9.272;2024-02-14T13:25:55;2.10;;;1.10;;
84357;SDS011;74548;47.712;9.272;2024-02-14T13:28:21;1.40;;;0.77;;
84357;SDS011;74548;47.712;9.272;2024-02-14T13:30:46;3.23;;;1.10;;
84357;SDS011;74548;47.712;9.272;2024-02-14T13:33:13;1.42;;;0.80;;
84357;SDS011;74548;47.712;9.272;2024-02-14T13:35:39;2.28;;;0.90;;
84357;SDS011;74548;47.712;9.272;2024-02-14T13:38:07;1.38;;;0.85;;
84357;SDS011;74548;47.712;9.272;2024-02-14T13:40:34;1.40;;;0.70;;
84357;SDS011;74548;47.712;9.272;2024-02-14T13:42:59;1.75;;;0.88;;
84357;SDS011;74548;47.712;9.272;2024-02-14T13:45:25;2.08;;;1.10;;
84357;SDS011;74548;47.712;9.272;2024-02-14T13:47:50;1.33;;;0.83;;
84357;SDS011;74548;47.712;9.272;2024-02-14T13:50:16;1.30;;;0.80;;
84357;SDS011;74548;47.712;9.272;2024-02-14T13:52:41;1.23;;;0.85;;
84357;SDS011;74548;47.712;9.272;2024-02-14T13:55:07;1.55;;;0.70;;
84357;SDS011;74548;47.712;9.272;2024-02-14T13:57:38;1.42;;;0.88;;
84357;SDS011;74548;47.712;9.272;2024-02-14T14:00:04;1.33;;;0.90;;
84357;SDS011;74548;47.712;9.272;2024-02-14T14:02:31;1.70;;;0.95;;
84357;SDS011;74548;47.712;9.272;2024-02-14T14:04:56;1.13;;;0.88;;
84357;SDS011;74548;47.712;9.272;2024-02-14T14:09:47;1.10;;;0.90;;
84357;SDS011;74548;47.712;9.272;2024-02-14T14:12:12;1.95;;;1.10;;
84357;SDS011;74548;47.712;9.272;2024-02-14T14:17:05;1.92;;;1.10;;
84357;SDS011;74548;47.712;9.272;2024-02-14T14:19:30;1.63;;;0.88;;
84357;SDS011;74548;47.712;9.272;2024-02-14T14:21:56;4.07;;;1.13;;
84357;SDS011;74548;47.712;9.272;2024-02-14T14:24:22;1.75;;;1.10;;
84357;SDS011;74548;47.712;9.272;2024-02-14T14:29:16;1.15;;;0.73;;
84357;SDS011;74548;47.712;9.272;2024-02-14T14:31:41;3.75;;;0.93;;
84357;SDS011;74548;47.712;9.272;2024-02-14T14:34:07;1.38;;;1.02;;
84357;SDS011;74548;47.712;9.272;2024-02-14T14:36:33;1.45;;;0.80;;
84357;SDS011;74548;47.712;9.272;2024-02-14T14:38:58;1.80;;;1.02;;
84357;SDS011;74548;47.712;9.272;2024-02-14T14:41:25;1.33;;;0.82;;
84357;SDS011;74548;47.712;9.272;2024-02-14T14:46:03;0.90;;;0.63;;
84357;SDS011;74548;47.712;9.272;2024-02-14T14:48:29;0.90;;;0.60;;
84357;SDS011;74548;47.712;9.272;2024-02-14T14:50:54;0.93;;;0.50;;
84357;SDS011;74548;47.712;9.272;2024-02-14T14:53:20;2.87;;;1.10;;
84357;SDS011;74548;47.712;9.272;2024-02-14T14:55:50;3.10;;;1.00;;
84357;SDS011;74548;47.712;9.272;2024-02-14T14:58:16;1.17;;;0.70;;
84357;SDS011;74548;47.712;9.272;2024-02-14T15:00:42;1.70;;;0.80;;
84357;SDS011;74548;47.712;9.272;2024-02-14T15:03:08;1.02;;;0.60;;
84357;SDS011;74548;47.712;9.272;2024-02-14T15:05:33;2.85;;;1.25;;
84357;SDS011;74548;47.712;9.272;2024-02-14T15:07:59;1.20;;;0.60;;
84357;SDS011;74548;47.712;9.272;2024-02-14T15:10:24;2.97;;;0.90;;
84357;SDS011;74548;47.712;9.272;2024-02-14T15:12:49;1.60;;;0.87;;
84357;SDS011;74548;47.712;9.272;2024-02-14T15:15:15;1.40;;;0.70;;
84357;SDS011;74548;47.712;9.272;2024-02-14T15:17:41;1.10;;;0.50;;
84357;SDS011;74548;47.712;9.272;2024-02-14T15:20:07;1.15;;;0.68;;
84357;SDS011;74548;47.712;9.272;2024-02-14T15:22:32;1.50;;;0.75;;
84357;SDS011;74548;47.712;9.272;2024-02-14T15:24:58;2.20;;;0.80;;
84357;SDS011;74548;47.712;9.272;2024-02-14T15:27:24;1.73;;;0.73;;
84357;SDS011;74548;47.712;9.272;2024-02-14T15:29:52;2.30;;;0.73;;
84357;SDS011;74548;47.712;9.272;2024-02-14T15:32:36;1.00;;;0.80;;